createdAt,value
2022-08-16T00:01:24.573Z,23.63
2022-08-16T00:03:53.644Z,23.62
2022-08-16T00:06:21.557Z,23.59
2022-08-16T00:08:49.494Z,23.55
2022-08-16T00:11:16.958Z,23.52
2022-08-16T00:13:53.337Z,23.49
2022-08-16T00:17:05.423Z,23.49
2022-08-16T00:19:16.574Z,23.49
2022-08-16T00:21:44.548Z,23.48
2022-08-16T00:24:12.693Z,23.47
2022-08-16T00:26:44.192Z,23.42
2022-08-16T00:29:16.676Z,23.43
2022-08-16T00:31:59.526Z,23.44
2022-08-16T00:34:45.022Z,23.42
2022-08-16T00:37:18.725Z,23.41
2022-08-16T00:39:57.130Z,23.39
2022-08-16T00:42:31.434Z,23.36
2022-08-16T00:45:27.786Z,23.35
2022-08-16T00:47:55.645Z,23.33
2022-08-16T00:50:35.650Z,23.33
2022-08-16T00:53:07.083Z,23.30
2022-08-16T00:55:38.240Z,23.26
2022-08-16T00:58:12.886Z,23.20
2022-08-16T01:00:40.536Z,23.19
2022-08-16T01:03:12.778Z,23.17
2022-08-16T01:05:41.042Z,23.15
2022-08-16T01:08:35.876Z,23.13
2022-08-16T01:10:57.172Z,23.12
2022-08-16T01:13:30.486Z,23.10
2022-08-16T01:16:12.923Z,23.06
2022-08-16T01:18:53.127Z,23.09
2022-08-16T01:22:47.791Z,23.09
2022-08-16T01:24:55.385Z,23.09
2022-08-16T01:27:29.416Z,23.07
2022-08-16T01:30:04.786Z,23.05
2022-08-16T01:33:01.284Z,23.02
2022-08-16T01:35:43.754Z,23.01
2022-08-16T01:38:36.403Z,23.00
2022-08-16T01:41:07.529Z,23.00
2022-08-16T01:43:36.828Z,22.99
2022-08-16T01:46:37.101Z,22.97
2022-08-16T01:49:11.540Z,22.96
2022-08-16T01:51:41.898Z,22.95
2022-08-16T01:54:13.192Z,22.95
2022-08-16T01:56:50.434Z,22.96
2022-08-16T01:59:18.168Z,22.94
2022-08-16T02:01:49.948Z,22.91
2022-08-16T02:04:40.124Z,22.90
2022-08-16T02:07:11.419Z,22.90
2022-08-16T02:09:39.870Z,22.88
2022-08-16T02:12:51.682Z,22.90
2022-08-16T02:14:57.558Z,22.88
2022-08-16T02:17:28.410Z,22.83
2022-08-16T02:19:59.407Z,22.82
2022-08-16T02:22:34.197Z,22.78
2022-08-16T02:25:14.702Z,22.78
2022-08-16T02:27:44.826Z,22.76
2022-08-16T02:30:37.214Z,22.74
2022-08-16T02:33:12.976Z,22.72
2022-08-16T02:35:54.434Z,22.72
2022-08-16T02:38:31.554Z,22.74
2022-08-16T02:41:02.406Z,22.73
2022-08-16T02:43:37.947Z,22.69
2022-08-16T02:46:07.886Z,22.68
2022-08-16T02:48:37.854Z,22.63
2022-08-16T02:51:11.271Z,22.63
2022-08-16T02:53:43.959Z,22.61
2022-08-16T02:56:15.560Z,22.61
2022-08-16T02:58:47.844Z,22.60
2022-08-16T03:01:25.134Z,22.57
2022-08-16T03:04:40.607Z,22.56
2022-08-16T03:06:56.170Z,22.57
2022-08-16T03:09:41.392Z,22.56
2022-08-16T03:12:11.802Z,22.56
2022-08-16T03:14:43.575Z,22.57
2022-08-16T03:17:10.950Z,22.57
2022-08-16T03:19:47.900Z,22.54
2022-08-16T03:22:28.952Z,22.52
2022-08-16T03:25:07.257Z,22.54
2022-08-16T03:27:41.033Z,22.55
2022-08-16T03:30:25.722Z,22.51
2022-08-16T03:32:56.370Z,22.49
2022-08-16T03:35:33.424Z,22.48
2022-08-16T03:38:32.918Z,22.45
2022-08-16T03:41:03.500Z,22.46
2022-08-16T03:43:51.423Z,22.45
2022-08-16T03:46:47.799Z,22.41
2022-08-16T03:49:11.747Z,22.37
2022-08-16T03:51:41.996Z,22.36
2022-08-16T03:54:12.382Z,22.36
2022-08-16T03:56:40.528Z,22.37
2022-08-16T03:59:29.491Z,22.39
2022-08-16T04:02:01.062Z,22.41
2022-08-16T04:04:32.998Z,22.43
2022-08-16T04:07:05.658Z,22.42
2022-08-16T04:09:37.943Z,22.41
2022-08-16T04:12:10.524Z,22.42
2022-08-16T04:14:46.432Z,22.43
2022-08-16T04:17:15.724Z,22.42
2022-08-16T04:19:47.525Z,22.40
2022-08-16T04:22:19.789Z,22.37
2022-08-16T04:24:59.047Z,22.34
2022-08-16T04:27:28.769Z,22.34
2022-08-16T04:30:03.409Z,22.35
2022-08-16T04:32:32.518Z,22.36
2022-08-16T04:35:06.380Z,22.36
2022-08-16T04:37:41.884Z,22.37
2022-08-16T04:40:38.633Z,22.35
2022-08-16T04:43:06.500Z,22.33
2022-08-16T04:45:36.167Z,22.33
2022-08-16T04:48:10.628Z,22.35
2022-08-16T04:50:46.963Z,22.36
2022-08-16T04:53:16.753Z,22.35
2022-08-16T04:55:46.750Z,22.35
2022-08-16T04:58:43.959Z,22.31
2022-08-16T05:01:08.256Z,22.33
2022-08-16T05:03:41.711Z,22.34
2022-08-16T05:06:10.051Z,22.37
2022-08-16T05:08:38.301Z,22.37
2022-08-16T05:11:18.390Z,22.39
2022-08-16T05:13:47.761Z,22.43
2022-08-16T05:16:27.793Z,22.51
2022-08-16T05:19:11.394Z,22.57
2022-08-16T05:21:40.432Z,22.62
2022-08-16T05:24:09.369Z,22.67
2022-08-16T05:26:40.809Z,22.73
2022-08-16T05:29:15.164Z,22.79
2022-08-16T05:31:54.242Z,22.87
2022-08-16T05:34:22.503Z,22.92
2022-08-16T05:36:53.226Z,23.01
2022-08-16T05:39:22.404Z,23.05
2022-08-16T05:41:51.754Z,23.10
2022-08-16T05:44:25.311Z,23.16
2022-08-16T05:47:00.337Z,23.22
2022-08-16T05:49:38.892Z,23.29
2022-08-16T05:52:13.509Z,23.35
2022-08-16T05:54:47.238Z,23.40
2022-08-16T05:57:20.651Z,23.43
2022-08-16T05:59:50.491Z,23.42
2022-08-16T06:02:33.547Z,23.43
2022-08-16T06:05:02.199Z,23.45
2022-08-16T06:07:29.647Z,23.44
2022-08-16T06:10:09.759Z,23.45
2022-08-16T06:12:38.649Z,23.47
2022-08-16T06:15:14.958Z,23.50
2022-08-16T06:17:44.647Z,23.53
2022-08-16T06:20:23.997Z,23.53
2022-08-16T06:22:58.684Z,23.53
2022-08-16T06:25:39.626Z,23.53
2022-08-16T06:28:17.217Z,23.50
2022-08-16T06:30:59.060Z,23.52
2022-08-16T06:33:29.740Z,23.53
2022-08-16T06:36:09.415Z,23.54
2022-08-16T06:38:38.122Z,23.58
2022-08-16T06:41:28.386Z,23.65
2022-08-16T06:44:08.416Z,23.72
2022-08-16T06:46:50.446Z,23.82
2022-08-16T06:49:18.190Z,23.85
2022-08-16T06:51:48.126Z,23.91
2022-08-16T06:54:19.047Z,23.97
2022-08-16T06:56:45.906Z,24.00
2022-08-16T06:59:14.377Z,24.04
2022-08-16T07:01:53.746Z,24.10
2022-08-16T07:04:32.932Z,24.16
2022-08-16T07:07:09.512Z,24.22
2022-08-16T07:09:37.378Z,24.29
2022-08-16T07:12:05.851Z,24.39
2022-08-16T07:14:34.983Z,24.50
2022-08-16T07:17:08.249Z,24.61
2022-08-16T07:20:28.979Z,24.71
2022-08-16T07:22:37.770Z,24.83
2022-08-16T07:25:14.787Z,24.92
2022-08-16T07:27:44.472Z,25.05
2022-08-16T07:30:39.580Z,25.08
2022-08-16T07:33:07.418Z,25.16
2022-08-16T07:35:36.469Z,25.22
2022-08-16T07:38:06.554Z,25.30
2022-08-16T07:41:01.950Z,25.24
2022-08-16T07:43:34.263Z,25.21
2022-08-16T07:46:03.874Z,25.21
2022-08-16T07:48:33.576Z,25.33
2022-08-16T07:51:08.826Z,25.37
2022-08-16T07:53:43.329Z,25.37
2022-08-16T07:56:12.332Z,25.42
2022-08-16T07:58:43.320Z,25.48
2022-08-16T08:01:15.156Z,25.58
2022-08-16T08:03:54.653Z,25.68
2022-08-16T08:06:32.377Z,25.77
2022-08-16T08:09:05.057Z,25.86
2022-08-16T08:11:32.860Z,25.94
2022-08-16T08:14:03.271Z,26.03
2022-08-16T08:16:35.760Z,26.10
2022-08-16T08:19:04.130Z,26.22
2022-08-16T08:21:59.585Z,26.31
2022-08-16T08:24:32.086Z,26.43
2022-08-16T08:27:04.047Z,26.55
2022-08-16T08:29:37.788Z,26.71
2022-08-16T08:32:57.377Z,26.86
2022-08-16T08:35:03.114Z,26.98
2022-08-16T08:37:55.524Z,27.09
2022-08-16T08:40:24.560Z,27.22
2022-08-16T08:43:00.762Z,27.34
2022-08-16T08:45:53.329Z,27.53
2022-08-16T08:48:33.291Z,27.71
2022-08-16T08:51:05.206Z,27.81
2022-08-16T08:53:34.312Z,27.91
2022-08-16T08:56:23.656Z,27.99
2022-08-16T08:58:54.886Z,28.00
2022-08-16T09:01:43.191Z,28.09
2022-08-16T09:04:25.243Z,28.20
2022-08-16T09:06:54.075Z,28.25
2022-08-16T09:09:24.812Z,28.39
2022-08-16T09:12:06.351Z,28.51
2022-08-16T09:14:57.398Z,28.58
2022-08-16T09:20:16.794Z,28.83
2022-08-16T09:22:44.427Z,28.90
2022-08-16T09:25:25.776Z,28.99
2022-08-16T09:27:57.749Z,29.16
2022-08-16T09:30:31.915Z,29.38
2022-08-16T09:33:02.852Z,29.48
2022-08-16T09:35:34.079Z,29.52
2022-08-16T09:38:04.928Z,29.57
2022-08-16T09:40:42.304Z,29.62
2022-08-16T09:43:46.413Z,29.54
2022-08-16T09:45:58.903Z,29.47
2022-08-16T09:48:44.109Z,29.40
2022-08-16T09:51:13.510Z,29.23
2022-08-16T09:53:41.863Z,29.12
2022-08-16T09:56:31.560Z,29.04
2022-08-16T09:59:05.743Z,28.94
2022-08-16T10:01:43.580Z,28.85
2022-08-16T10:04:31.446Z,28.76
2022-08-16T10:09:44.897Z,28.61
2022-08-16T10:12:42.554Z,28.58
2022-08-16T10:15:15.416Z,28.60
2022-08-16T10:18:01.682Z,28.61
2022-08-16T10:20:35.236Z,28.64
2022-08-16T10:23:08.449Z,28.70
2022-08-16T10:27:20.628Z,28.71
2022-08-16T10:28:31.941Z,28.74
2022-08-16T10:31:04.169Z,28.75
2022-08-16T10:33:34.301Z,28.72
2022-08-16T10:36:05.718Z,28.72
2022-08-16T10:38:37.321Z,28.71
2022-08-16T10:41:07.110Z,28.70
2022-08-16T10:43:36.385Z,28.69
2022-08-16T10:46:39.170Z,28.70
2022-08-16T10:48:52.518Z,28.73
2022-08-16T10:51:19.522Z,28.70
2022-08-16T10:53:46.292Z,28.66
2022-08-16T10:56:52.357Z,28.64
2022-08-16T11:12:56.519Z,28.78
2022-08-16T11:15:24.627Z,28.86
2022-08-16T11:20:48.812Z,29.02
2022-08-16T11:23:16.838Z,29.12
2022-08-16T11:31:20.049Z,29.24
2022-08-16T11:33:55.626Z,29.23
2022-08-16T11:36:27.378Z,29.13
2022-08-16T11:39:00.482Z,29.06
2022-08-16T11:41:29.455Z,28.98
2022-08-16T11:43:59.722Z,28.88
2022-08-16T11:46:45.181Z,28.83
2022-08-16T11:49:14.402Z,28.74
2022-08-16T11:51:44.496Z,28.67
2022-08-16T11:54:20.582Z,28.62
2022-08-16T11:56:53.086Z,28.65
2022-08-16T11:59:28.800Z,28.67
2022-08-16T12:01:59.847Z,28.73
2022-08-16T12:04:27.231Z,28.80
2022-08-16T12:06:54.716Z,28.87
2022-08-16T12:09:22.456Z,28.93
2022-08-16T12:11:52.492Z,29.01
2022-08-16T12:14:23.104Z,29.18
2022-08-16T12:16:55.150Z,29.32
2022-08-16T12:19:34.016Z,29.50
2022-08-16T12:22:05.461Z,29.69
2022-08-16T12:24:32.909Z,29.85
2022-08-16T12:27:01.049Z,30.00
2022-08-16T12:29:30.499Z,30.14
2022-08-16T12:32:01.317Z,30.37
2022-08-16T12:34:50.544Z,30.55
2022-08-16T12:37:21.519Z,30.78
2022-08-16T12:39:56.953Z,30.97
2022-08-16T12:42:34.505Z,31.20
2022-08-16T12:45:06.571Z,31.23
2022-08-16T12:48:04.866Z,31.09
2022-08-16T12:50:40.397Z,30.90
2022-08-16T12:53:08.097Z,30.77
2022-08-16T12:55:42.018Z,30.60
2022-08-16T12:58:13.858Z,30.44
2022-08-16T13:00:59.814Z,30.22
2022-08-16T13:03:29.020Z,30.04
2022-08-16T13:05:59.865Z,29.85
2022-08-16T13:08:27.451Z,29.58
2022-08-16T13:10:58.376Z,29.41
2022-08-16T13:13:26.872Z,29.26
2022-08-16T13:16:02.242Z,29.22
2022-08-16T13:18:35.638Z,29.23
2022-08-16T13:21:07.587Z,29.44
2022-08-16T13:23:36.454Z,29.78
2022-08-16T13:26:12.938Z,30.19
2022-08-16T13:28:47.696Z,30.54
2022-08-16T13:31:16.907Z,30.83
2022-08-16T13:33:45.404Z,31.18
2022-08-16T13:36:32.262Z,31.46
2022-08-16T13:39:01.721Z,31.76
2022-08-16T13:41:30.095Z,31.97
2022-08-16T13:44:00.926Z,32.18
2022-08-16T13:46:32.528Z,32.38
2022-08-16T13:49:00.157Z,32.52
2022-08-16T13:51:30.792Z,32.78
2022-08-16T13:54:03.992Z,33.01
2022-08-16T13:56:36.008Z,33.13
2022-08-16T13:59:19.919Z,33.27
2022-08-16T14:01:55.125Z,33.34
2022-08-16T14:04:28.573Z,33.54
2022-08-16T14:06:57.638Z,33.65
2022-08-16T14:09:27.212Z,33.49
2022-08-16T14:11:56.463Z,33.16
2022-08-16T14:14:29.196Z,32.89
2022-08-16T14:16:58.427Z,32.60
2022-08-16T14:19:26.492Z,32.43
2022-08-16T14:22:14.105Z,32.49
2022-08-16T14:24:45.266Z,32.69
2022-08-16T14:27:18.628Z,32.84
2022-08-16T14:29:49.300Z,33.00
2022-08-16T14:32:32.420Z,33.16
2022-08-16T14:35:02.926Z,33.23
2022-08-16T14:37:31.898Z,33.37
2022-08-16T14:39:59.774Z,33.51
2022-08-16T14:42:26.830Z,33.65
2022-08-16T14:44:54.160Z,33.82
2022-08-16T14:47:22.645Z,33.92
2022-08-16T14:49:52.424Z,33.94
2022-08-16T14:52:44.341Z,33.88
2022-08-16T14:55:10.900Z,33.89
2022-08-16T14:57:39.806Z,33.84
2022-08-16T15:00:11.363Z,33.78
2022-08-16T15:02:47.066Z,33.79
2022-08-16T15:05:17.000Z,33.89
2022-08-16T15:07:43.760Z,33.98
2022-08-16T15:10:21.601Z,34.06
2022-08-16T15:12:56.307Z,34.22
2022-08-16T15:15:27.594Z,34.43
2022-08-16T15:17:57.027Z,34.63
2022-08-16T15:20:29.357Z,34.62
2022-08-16T15:22:58.897Z,34.59
2022-08-16T15:25:30.200Z,34.56
2022-08-16T15:28:04.733Z,34.50
2022-08-16T15:30:59.752Z,34.45
2022-08-16T15:33:25.538Z,34.38
2022-08-16T15:35:55.539Z,34.33
2022-08-16T15:38:58.011Z,34.21
2022-08-16T15:41:43.528Z,34.10
2022-08-16T15:44:13.050Z,34.02
2022-08-16T15:46:56.867Z,33.95
2022-08-16T15:49:37.196Z,33.89
2022-08-16T15:52:12.263Z,33.84
2022-08-16T15:54:53.422Z,33.78
2022-08-16T15:57:26.127Z,33.72
2022-08-16T15:59:55.607Z,33.63
2022-08-16T16:02:29.306Z,33.57
2022-08-16T16:05:09.591Z,33.43
2022-08-16T16:07:55.453Z,33.34
2022-08-16T16:10:29.316Z,33.24
2022-08-16T16:13:00.714Z,33.10
2022-08-16T16:15:32.249Z,33.00
2022-08-16T16:17:59.343Z,32.88
2022-08-16T16:20:32.946Z,32.75
2022-08-16T16:23:10.175Z,32.59
2022-08-16T16:25:43.987Z,32.50
2022-08-16T16:29:06.058Z,32.38
2022-08-16T16:31:10.078Z,32.25
2022-08-16T16:33:43.266Z,32.10
2022-08-16T16:36:14.915Z,31.99
2022-08-16T16:38:45.464Z,31.86
2022-08-16T16:41:12.697Z,31.76
2022-08-16T16:43:42.341Z,31.62
2022-08-16T16:46:39.327Z,31.49
2022-08-16T16:49:03.956Z,31.32
2022-08-16T16:51:32.064Z,31.17
2022-08-16T16:54:09.922Z,31.02
2022-08-16T16:56:40.281Z,30.88
2022-08-16T16:59:18.839Z,30.73
2022-08-16T17:02:00.016Z,30.57
2022-08-16T17:04:39.115Z,30.43
2022-08-16T17:07:10.698Z,30.32
2022-08-16T17:09:40.152Z,30.23
2022-08-16T17:12:09.267Z,30.09
2022-08-16T17:14:38.537Z,29.96
2022-08-16T17:17:08.616Z,29.81
2022-08-16T17:19:40.799Z,29.68
2022-08-16T17:22:15.602Z,29.47
2022-08-16T17:24:50.841Z,29.32
2022-08-16T17:30:19.630Z,29.06
2022-08-16T17:32:56.168Z,28.96
2022-08-16T17:35:33.675Z,28.85
2022-08-16T17:38:06.405Z,28.71
2022-08-16T17:39:28.160Z,29.19
2022-08-16T17:40:47.098Z,28.61
2022-08-16T17:43:36.364Z,28.50
2022-08-16T17:46:04.862Z,28.42
2022-08-16T17:48:35.680Z,28.34
2022-08-16T17:51:04.108Z,28.22
2022-08-16T17:53:32.854Z,28.15
2022-08-16T17:55:59.724Z,28.08
2022-08-16T17:58:26.727Z,28.00
2022-08-16T18:00:56.713Z,27.91
2022-08-16T18:04:06.764Z,27.86
2022-08-16T18:06:24.455Z,27.76
2022-08-16T18:08:57.856Z,27.68
2022-08-16T18:11:30.130Z,27.59
2022-08-16T18:14:00.174Z,27.52
2022-08-16T18:16:27.100Z,27.45
2022-08-16T18:18:53.841Z,27.36
2022-08-16T18:21:40.392Z,27.29
2022-08-16T18:24:08.347Z,27.21
2022-08-16T18:26:35.674Z,27.12
2022-08-16T18:29:02.435Z,27.02
2022-08-16T18:31:29.163Z,26.94
2022-08-16T18:33:56.452Z,26.86
2022-08-16T18:36:25.206Z,26.78
2022-08-16T18:38:53.683Z,26.70
2022-08-16T18:41:23.896Z,26.64
2022-08-16T18:44:14.227Z,26.58
2022-08-16T18:46:44.625Z,26.53
2022-08-16T18:49:14.902Z,26.49
2022-08-16T18:51:45.202Z,26.42
2022-08-16T18:54:14.264Z,26.38
2022-08-16T18:56:55.623Z,26.31
2022-08-16T18:59:28.753Z,26.25
2022-08-16T19:02:00.208Z,26.18
2022-08-16T19:04:55.707Z,26.13
2022-08-16T19:07:23.325Z,26.10
2022-08-16T19:09:57.279Z,26.07
2022-08-16T19:12:38.799Z,26.03
2022-08-16T19:15:16.143Z,25.98
2022-08-16T19:17:45.169Z,25.94
2022-08-16T19:20:13.734Z,25.89
2022-08-16T19:25:47.325Z,25.79
2022-08-16T19:28:51.774Z,25.76
2022-08-16T19:31:24.215Z,25.69
2022-08-16T19:33:55.598Z,25.66
2022-08-16T19:36:36.166Z,25.64
2022-08-16T19:39:13.934Z,25.58
2022-08-16T19:41:45.030Z,25.55
2022-08-16T19:44:12.413Z,25.54
2022-08-16T19:46:41.836Z,25.52
2022-08-16T19:49:08.867Z,25.50
2022-08-16T19:51:37.668Z,25.47
2022-08-16T19:54:05.221Z,25.46
2022-08-16T19:56:32.205Z,25.47
2022-08-16T20:01:46.477Z,25.50
2022-08-16T20:04:13.738Z,25.49
2022-08-16T20:06:42.327Z,25.46
2022-08-16T20:09:10.468Z,25.44
2022-08-16T20:11:46.121Z,25.42
2022-08-16T20:14:24.921Z,25.40
2022-08-16T20:16:55.691Z,25.34
2022-08-16T20:19:22.623Z,25.29
2022-08-16T20:21:49.958Z,25.23
2022-08-16T20:24:33.603Z,25.19
2022-08-16T20:27:03.349Z,25.18
2022-08-16T20:29:30.150Z,25.15
2022-08-16T20:31:56.916Z,25.12
2022-08-16T20:34:23.637Z,25.09
2022-08-16T20:36:50.366Z,25.06
2022-08-16T20:39:17.197Z,25.03
2022-08-16T20:41:44.404Z,24.99
2022-08-16T20:44:12.784Z,24.95
2022-08-16T20:46:40.243Z,24.92
2022-08-16T20:49:09.281Z,24.89
2022-08-16T20:51:50.850Z,24.86
2022-08-16T20:54:20.550Z,24.82
2022-08-16T20:56:47.634Z,24.79
2022-08-16T20:59:14.534Z,24.75
2022-08-16T21:01:46.342Z,24.74
2022-08-16T21:04:14.337Z,24.71
2022-08-16T21:06:41.684Z,24.70
2022-08-16T21:09:20.296Z,24.67
2022-08-16T21:11:47.600Z,24.61
2022-08-16T21:14:14.658Z,24.58
2022-08-16T21:16:41.534Z,24.55
2022-08-16T21:19:08.565Z,24.52
2022-08-16T21:21:35.500Z,24.46
2022-08-16T21:24:02.653Z,24.43
2022-08-16T21:26:30.338Z,24.39
2022-08-16T21:28:57.094Z,24.37
2022-08-16T21:31:24.821Z,24.34
2022-08-16T21:33:54.912Z,24.30
2022-08-16T21:36:34.970Z,24.28
2022-08-16T21:39:05.869Z,24.23
2022-08-16T21:41:33.603Z,24.18
2022-08-16T21:44:00.373Z,24.16
2022-08-16T21:46:27.341Z,24.14
2022-08-16T21:48:54.119Z,24.13
2022-08-16T21:51:21.297Z,24.13
2022-08-16T21:53:48.247Z,24.11
2022-08-16T21:56:17.040Z,24.10
2022-08-16T21:58:45.996Z,24.10
2022-08-16T22:01:13.428Z,24.06
2022-08-16T22:03:40.214Z,24.03
2022-08-16T22:06:13.093Z,23.97
2022-08-16T22:08:50.549Z,23.93
2022-08-16T22:11:20.068Z,23.91
2022-08-16T22:13:51.201Z,23.87
2022-08-16T22:16:27.768Z,23.90
2022-08-16T22:18:54.680Z,23.87
2022-08-16T22:21:21.724Z,23.87
2022-08-16T22:23:56.735Z,23.86
2022-08-16T22:26:31.835Z,23.82
2022-08-16T22:29:06.272Z,23.81
2022-08-16T22:31:34.397Z,23.80
2022-08-16T22:34:02.453Z,23.77
2022-08-16T22:36:31.155Z,23.72
2022-08-16T22:39:00.312Z,23.70
2022-08-16T22:41:28.859Z,23.68
2022-08-16T22:43:56.162Z,23.67
2022-08-16T22:46:23.134Z,23.64
2022-08-16T22:48:50.907Z,23.61
2022-08-16T22:51:22.736Z,23.58
2022-08-16T22:53:50.157Z,23.57
2022-08-16T22:56:17.774Z,23.55
2022-08-16T22:58:46.123Z,23.52
2022-08-16T23:01:13.912Z,23.49
2022-08-16T23:03:41.853Z,23.46
2022-08-16T23:06:10.568Z,23.44
2022-08-16T23:08:40.950Z,23.41
2022-08-16T23:11:22.588Z,23.39
2022-08-16T23:13:53.997Z,23.38
2022-08-16T23:16:33.447Z,23.38
2022-08-16T23:19:07.217Z,23.36
2022-08-16T23:21:37.326Z,23.34
2022-08-16T23:24:06.216Z,23.32
2022-08-16T23:26:46.370Z,23.28
2022-08-16T23:29:23.516Z,23.24
2022-08-16T23:31:57.577Z,23.25
2022-08-16T23:34:27.022Z,23.26
2022-08-16T23:36:54.155Z,23.26
2022-08-16T23:39:20.877Z,23.25
2022-08-16T23:41:47.620Z,23.25
2022-08-16T23:44:58.590Z,23.24
2022-08-16T23:47:01.304Z,23.23
2022-08-16T23:49:56.291Z,23.23
2022-08-16T23:52:14.880Z,23.25
2022-08-16T23:54:41.665Z,23.25
2022-08-16T23:57:08.584Z,23.24
2022-08-16T23:59:48.705Z,23.21
